createdAt,value
2018-08-03T06:00:09.331Z,66.30
2018-08-03T06:02:37.971Z,66.10
2018-08-03T06:05:11.226Z,65.70
2018-08-03T06:07:40.154Z,65.00
2018-08-03T06:10:08.717Z,64.50
2018-08-03T06:12:37.137Z,64.00
2018-08-03T06:15:07.638Z,63.10
2018-08-03T06:17:36.049Z,62.80
2018-08-03T06:20:06.017Z,62.60
2018-08-03T06:22:34.362Z,62.30
2018-08-03T06:25:02.701Z,62.20
2018-08-03T06:27:30.985Z,61.60
2018-08-03T06:29:59.217Z,61.20
2018-08-03T06:32:27.484Z,60.90
2018-08-03T06:34:55.774Z,60.90
2018-08-03T06:37:24.121Z,60.80
2018-08-03T06:39:52.329Z,60.80
2018-08-03T06:42:20.515Z,60.40
2018-08-03T06:44:48.709Z,60.10
2018-08-03T06:47:17.018Z,59.80
2018-08-03T06:49:45.291Z,59.20
2018-08-03T06:52:13.488Z,59.20
2018-08-03T06:54:41.652Z,58.70
2018-08-03T06:57:09.899Z,58.40
2018-08-03T06:59:38.108Z,58.30
2018-08-03T07:02:06.439Z,57.80
2018-08-03T07:04:34.722Z,57.60
2018-08-03T07:07:02.840Z,57.10
2018-08-03T07:09:31.012Z,57.30
2018-08-03T07:11:59.116Z,57.40
2018-08-03T07:14:27.353Z,56.40
2018-08-03T07:16:55.473Z,56.20
2018-08-03T07:19:23.638Z,55.90
2018-08-03T07:21:51.837Z,55.80
2018-08-03T07:24:20.054Z,55.80
2018-08-03T07:26:48.321Z,56.00
2018-08-03T07:29:16.404Z,55.40
2018-08-03T07:31:44.597Z,54.90
2018-08-03T07:34:12.760Z,54.60
2018-08-03T07:36:40.964Z,55.00
2018-08-03T07:39:09.581Z,54.90
2018-08-03T07:41:37.784Z,54.80
2018-08-03T07:44:05.976Z,54.80
2018-08-03T07:46:34.161Z,54.50
2018-08-03T07:49:02.325Z,53.80
2018-08-03T07:51:30.592Z,53.60
2018-08-03T07:53:58.716Z,53.50
2018-08-03T07:56:26.896Z,53.60
2018-08-03T07:58:55.009Z,53.50
2018-08-03T08:01:23.156Z,53.70
2018-08-03T08:03:51.383Z,53.70
2018-08-03T08:06:19.590Z,53.60
2018-08-03T08:08:47.703Z,53.40
2018-08-03T08:11:15.834Z,52.70
2018-08-03T08:13:43.976Z,52.40
2018-08-03T08:16:12.189Z,52.40
2018-08-03T08:18:40.411Z,52.60
2018-08-03T08:21:08.651Z,51.90
2018-08-03T08:23:36.840Z,52.00
2018-08-03T08:26:05.134Z,52.00
2018-08-03T08:28:33.390Z,51.70
2018-08-03T08:31:01.534Z,51.20
2018-08-03T08:33:29.677Z,51.50
2018-08-03T08:35:57.864Z,51.30
2018-08-03T08:38:26.087Z,50.80
2018-08-03T08:40:54.388Z,50.80
2018-08-03T08:43:22.582Z,50.90
2018-08-03T08:45:50.665Z,51.40
2018-08-03T08:48:18.844Z,50.80
2018-08-03T08:50:46.977Z,50.60
2018-08-03T08:53:15.249Z,50.90
2018-08-03T08:55:43.431Z,50.40
2018-08-03T08:58:11.640Z,50.60
2018-08-03T09:00:39.889Z,49.70
2018-08-03T09:03:08.104Z,49.80
2018-08-03T09:05:36.381Z,49.60
2018-08-03T09:08:04.522Z,50.00
2018-08-03T09:10:32.731Z,49.40
2018-08-03T09:13:00.882Z,49.20
2018-08-03T09:15:29.054Z,48.30
2018-08-03T09:17:57.296Z,47.70
2018-08-03T09:20:25.475Z,47.60
2018-08-03T09:22:53.621Z,46.80
2018-08-03T09:25:21.839Z,46.40
2018-08-03T09:27:50.240Z,45.50
2018-08-03T09:30:18.469Z,44.90
2018-08-03T09:32:46.672Z,44.20
2018-08-03T09:35:14.919Z,43.90
2018-08-03T09:37:43.107Z,43.00
2018-08-03T09:40:11.331Z,42.50
2018-08-03T09:42:39.529Z,41.80
2018-08-03T09:45:07.681Z,41.30
2018-08-03T09:47:35.828Z,40.70
2018-08-03T09:50:04.326Z,39.40
2018-08-03T09:52:32.747Z,39.30
2018-08-03T09:55:00.933Z,38.60
2018-08-03T09:57:29.105Z,38.00
2018-08-03T09:59:57.356Z,38.20
2018-08-03T10:02:25.500Z,37.40
2018-08-03T10:04:53.704Z,37.30
2018-08-03T10:07:21.931Z,36.80
2018-08-03T10:09:50.199Z,36.60
2018-08-03T10:12:18.406Z,35.90
2018-08-03T10:14:46.623Z,36.00
2018-08-03T10:17:14.745Z,36.20
2018-08-03T10:19:42.969Z,36.80
2018-08-03T10:22:11.126Z,37.10
2018-08-03T10:24:39.280Z,37.80
2018-08-03T10:27:07.412Z,38.00
2018-08-03T10:29:35.645Z,38.60
2018-08-03T10:32:03.750Z,39.50
2018-08-03T10:34:31.858Z,39.40
2018-08-03T10:37:00.031Z,39.00
2018-08-03T10:39:28.144Z,39.20
2018-08-03T10:41:56.261Z,39.70
2018-08-03T10:44:24.490Z,39.90
2018-08-03T10:46:52.660Z,40.00
2018-08-03T10:49:20.909Z,40.10
2018-08-03T10:51:49.049Z,39.50
2018-08-03T10:54:17.264Z,39.60
2018-08-03T10:56:45.490Z,40.60
2018-08-03T10:59:13.679Z,40.70
2018-08-03T11:01:41.814Z,39.80
2018-08-03T11:04:09.975Z,39.00
2018-08-03T11:06:38.225Z,39.20
2018-08-03T11:09:07.714Z,39.50
2018-08-03T11:11:35.952Z,39.20
2018-08-03T11:14:04.173Z,38.10
2018-08-03T11:16:32.588Z,37.60
2018-08-03T11:19:00.712Z,37.30
2018-08-03T11:21:28.937Z,37.80
2018-08-03T11:23:57.113Z,38.80
2018-08-03T11:26:25.249Z,38.40
2018-08-03T11:28:53.436Z,37.50
2018-08-03T11:31:21.600Z,37.40
2018-08-03T11:33:49.819Z,36.70
2018-08-03T11:36:18.074Z,36.60
2018-08-03T11:38:46.209Z,35.50
2018-08-03T11:41:14.361Z,35.70
2018-08-03T11:43:42.561Z,35.80
2018-08-03T11:46:10.760Z,35.60
2018-08-03T11:48:38.999Z,35.30
2018-08-03T11:51:07.222Z,34.70
2018-08-03T11:53:35.467Z,34.90
2018-08-03T11:56:03.690Z,34.90
2018-08-03T11:58:32.010Z,34.50
2018-08-03T12:01:00.201Z,34.10
2018-08-03T12:03:28.423Z,34.70
2018-08-03T12:05:56.583Z,34.90
2018-08-03T12:08:24.929Z,35.80
2018-08-03T12:10:53.140Z,36.50
2018-08-03T12:13:21.452Z,36.40
2018-08-03T12:15:49.670Z,35.60
2018-08-03T12:18:17.864Z,35.00
2018-08-03T12:20:46.865Z,34.10
2018-08-03T12:23:15.176Z,34.30
2018-08-03T12:25:43.702Z,34.40
2018-08-03T12:28:12.239Z,34.50
2018-08-03T12:30:40.405Z,35.10
2018-08-03T12:33:08.774Z,35.20
2018-08-03T12:35:37.014Z,35.60
2018-08-03T12:38:05.173Z,35.90
2018-08-03T12:40:33.364Z,35.50
2018-08-03T12:43:01.597Z,35.50
2018-08-03T12:45:33.996Z,35.40
2018-08-03T12:47:57.979Z,35.50
2018-08-03T12:50:26.126Z,35.30
2018-08-03T12:52:54.409Z,35.90
2018-08-03T12:55:22.540Z,35.60
2018-08-03T12:57:50.729Z,35.60
2018-08-03T13:00:18.931Z,36.30
2018-08-03T13:02:47.119Z,35.90
2018-08-03T13:05:15.261Z,36.00
2018-08-03T13:07:43.477Z,35.80
2018-08-03T13:10:11.644Z,35.90
2018-08-03T13:12:39.868Z,35.80
2018-08-03T13:15:08.796Z,35.50
2018-08-03T13:17:36.953Z,35.30
2018-08-03T13:20:05.444Z,35.20
2018-08-03T13:22:33.632Z,34.90
2018-08-03T13:25:01.805Z,35.00
2018-08-03T13:27:30.000Z,34.90
2018-08-03T13:29:58.099Z,35.10
2018-08-03T13:32:26.252Z,35.20
2018-08-03T13:34:54.591Z,34.80
2018-08-03T13:37:22.753Z,34.50
2018-08-03T13:39:51.017Z,34.50
2018-08-03T13:42:19.157Z,35.00
2018-08-03T13:44:47.344Z,34.90
2018-08-03T13:47:15.492Z,34.30
2018-08-03T13:49:43.676Z,34.10
2018-08-03T13:52:11.902Z,34.40
2018-08-03T13:54:40.030Z,34.50
2018-08-03T13:57:08.248Z,34.70
2018-08-03T13:59:36.400Z,33.90
2018-08-03T14:02:18.184Z,33.80
2018-08-03T14:04:46.369Z,33.20
2018-08-03T14:07:14.681Z,33.40
2018-08-03T14:09:42.831Z,33.90
2018-08-03T14:12:11.031Z,33.70
2018-08-03T14:14:39.942Z,33.60
2018-08-03T14:17:08.126Z,33.00
2018-08-03T14:19:36.309Z,33.30
2018-08-03T14:22:04.777Z,33.30
2018-08-03T14:24:32.978Z,33.50
2018-08-03T14:27:01.247Z,32.90
2018-08-03T14:29:29.389Z,33.40
2018-08-03T14:31:57.577Z,33.40
2018-08-03T14:34:25.733Z,33.10
2018-08-03T14:36:54.030Z,33.00
2018-08-03T14:39:22.313Z,32.60
2018-08-03T14:41:50.501Z,32.90
2018-08-03T14:44:18.642Z,32.60
2018-08-03T14:46:46.797Z,32.40
2018-08-03T14:49:14.967Z,32.30
2018-08-03T14:51:43.183Z,32.20
2018-08-03T14:54:11.331Z,32.70
2018-08-03T14:56:39.518Z,32.20
2018-08-03T14:59:07.640Z,32.40
2018-08-03T15:01:35.821Z,32.30
2018-08-03T15:04:04.024Z,32.10
2018-08-03T15:06:32.149Z,32.20
2018-08-03T15:09:00.317Z,32.60
2018-08-03T15:11:28.457Z,32.70
2018-08-03T15:13:56.639Z,32.30
2018-08-03T15:16:24.836Z,32.30
2018-08-03T15:18:53.074Z,32.70
2018-08-03T15:21:21.278Z,32.70
2018-08-03T15:23:49.428Z,32.60
2018-08-03T15:26:17.601Z,32.60
2018-08-03T15:28:45.832Z,32.80
2018-08-03T15:31:14.005Z,33.00
2018-08-03T15:33:42.195Z,33.10
2018-08-03T15:36:10.524Z,33.20
2018-08-03T15:38:38.677Z,33.80
2018-08-03T15:41:07.018Z,33.10
2018-08-03T15:43:35.188Z,32.10
2018-08-03T15:46:03.345Z,32.60
2018-08-03T15:48:31.478Z,32.60
2018-08-03T15:50:59.634Z,31.90
2018-08-03T15:53:27.845Z,32.90
2018-08-03T15:55:56.018Z,33.80
2018-08-03T15:58:24.281Z,33.20
2018-08-03T16:00:52.529Z,33.00
2018-08-03T16:03:20.739Z,32.20
2018-08-03T16:05:48.957Z,32.40
2018-08-03T16:08:17.195Z,32.80
2018-08-03T16:10:45.332Z,32.30
2018-08-03T16:13:13.544Z,33.20
2018-08-03T16:15:41.753Z,32.40
2018-08-03T16:18:09.989Z,31.90
2018-08-03T16:20:38.248Z,31.80
2018-08-03T16:23:06.403Z,32.10
2018-08-03T16:25:34.629Z,32.40
2018-08-03T16:28:02.852Z,32.00
2018-08-03T16:30:31.058Z,32.20
2018-08-03T16:32:59.450Z,31.80
2018-08-03T16:35:27.608Z,31.80
2018-08-03T16:37:55.823Z,32.20
2018-08-03T16:40:24.040Z,32.10
2018-08-03T16:42:52.229Z,32.20
2018-08-03T16:45:20.413Z,32.10
2018-08-03T16:47:48.575Z,33.00
2018-08-03T16:50:16.796Z,32.60
2018-08-03T16:52:45.005Z,32.60
2018-08-03T16:55:13.316Z,32.80
2018-08-03T16:57:41.503Z,32.80
2018-08-03T17:00:09.688Z,32.70
2018-08-03T17:02:37.864Z,32.60
2018-08-03T17:05:06.108Z,32.60
2018-08-03T17:07:34.329Z,32.70
2018-08-03T17:10:02.469Z,33.00
2018-08-03T17:12:30.632Z,33.10
2018-08-03T17:14:58.766Z,33.20
2018-08-03T17:17:26.940Z,33.20
2018-08-03T17:19:55.161Z,33.10
2018-08-03T17:22:23.328Z,33.00
2018-08-03T17:24:51.685Z,32.70
2018-08-03T17:27:19.859Z,33.10
2018-08-03T17:29:48.081Z,32.90
2018-08-03T17:32:16.300Z,33.30
2018-08-03T17:34:44.456Z,33.00
2018-08-03T17:37:12.623Z,33.20
2018-08-03T17:39:40.794Z,33.60
2018-08-03T17:42:08.989Z,33.40
2018-08-03T17:44:37.199Z,34.10
2018-08-03T17:47:05.426Z,34.60
2018-08-03T17:49:33.693Z,34.20
2018-08-03T17:52:01.849Z,34.70
2018-08-03T17:54:29.991Z,34.50
2018-08-03T17:56:58.208Z,34.70
2018-08-03T17:59:26.381Z,34.70
2018-08-03T18:01:54.545Z,35.10
2018-08-03T18:04:22.725Z,35.20
2018-08-03T18:06:50.912Z,35.10
2018-08-03T18:09:19.200Z,34.80
2018-08-03T18:11:48.526Z,35.10
2018-08-03T18:14:16.685Z,34.40
2018-08-03T18:16:44.872Z,35.10
2018-08-03T18:19:13.074Z,35.30
2018-08-03T18:21:41.326Z,35.30
2018-08-03T18:24:09.612Z,35.70
2018-08-03T18:26:37.861Z,35.80
2018-08-03T18:29:06.086Z,36.10
2018-08-03T18:31:34.180Z,36.40
2018-08-03T18:34:02.340Z,36.70
2018-08-03T18:36:30.576Z,36.70
2018-08-03T18:38:58.713Z,36.60
2018-08-03T18:41:26.899Z,36.50
2018-08-03T18:43:55.094Z,36.60
2018-08-03T18:46:23.305Z,36.80
2018-08-03T18:48:51.472Z,36.90
2018-08-03T18:51:19.696Z,37.10
2018-08-03T18:53:47.843Z,37.30
2018-08-03T18:56:15.994Z,37.30
2018-08-03T18:58:44.321Z,37.50
2018-08-03T19:01:12.520Z,37.80
2018-08-03T19:03:40.672Z,38.20
2018-08-03T19:06:08.776Z,38.50
2018-08-03T19:08:37.056Z,38.60
2018-08-03T19:11:05.234Z,38.70
2018-08-03T19:13:33.413Z,39.10
2018-08-03T19:16:01.540Z,39.80
2018-08-03T19:18:29.774Z,39.80
2018-08-03T19:20:57.929Z,39.70
2018-08-03T19:23:26.161Z,40.10
2018-08-03T19:25:54.346Z,40.20
2018-08-03T19:28:22.536Z,40.60
2018-08-03T19:30:50.733Z,40.50
2018-08-03T19:33:18.868Z,40.80
2018-08-03T19:35:47.093Z,40.90
2018-08-03T19:38:15.277Z,40.90
2018-08-03T19:40:43.498Z,41.00
2018-08-03T19:43:11.660Z,41.50
2018-08-03T19:45:39.833Z,41.40
2018-08-03T19:48:08.063Z,41.40
2018-08-03T19:50:36.264Z,41.50
2018-08-03T19:53:04.552Z,41.70
2018-08-03T19:55:32.709Z,42.10
2018-08-03T19:58:00.889Z,42.30
2018-08-03T20:00:29.156Z,42.50
2018-08-03T20:02:57.299Z,42.80
2018-08-03T20:05:25.540Z,42.70
2018-08-03T20:07:53.680Z,43.00
2018-08-03T20:10:21.844Z,43.70
2018-08-03T20:12:50.100Z,43.80
2018-08-03T20:15:18.256Z,44.20
2018-08-03T20:17:46.450Z,44.20
2018-08-03T20:20:14.661Z,43.90
2018-08-03T20:22:42.860Z,44.00
2018-08-03T20:25:11.173Z,44.40
2018-08-03T20:27:39.372Z,44.60
2018-08-03T20:30:07.852Z,44.40
2018-08-03T20:32:36.015Z,44.50
2018-08-03T20:35:04.322Z,45.00
2018-08-03T20:37:32.556Z,45.00
2018-08-03T20:40:00.666Z,45.00
2018-08-03T20:42:28.868Z,45.30
2018-08-03T20:44:57.071Z,45.20
2018-08-03T20:47:25.220Z,45.30
2018-08-03T20:49:53.405Z,45.60
2018-08-03T20:52:21.661Z,45.60
2018-08-03T20:54:49.881Z,46.10
2018-08-03T20:57:18.048Z,46.20
2018-08-03T20:59:46.181Z,46.40
2018-08-03T21:02:14.427Z,46.60
2018-08-03T21:04:42.610Z,46.70
2018-08-03T21:07:10.751Z,46.70
2018-08-03T21:09:38.947Z,46.80
2018-08-03T21:12:07.128Z,47.20
2018-08-03T21:14:35.365Z,47.30
2018-08-03T21:17:03.525Z,47.20
2018-08-03T21:19:31.664Z,47.20
2018-08-03T21:21:59.851Z,47.30
2018-08-03T21:24:28.065Z,47.60
2018-08-03T21:26:56.305Z,47.90
2018-08-03T21:29:24.456Z,47.50
2018-08-03T21:31:52.592Z,47.50
2018-08-03T21:34:20.772Z,47.60
2018-08-03T21:36:48.976Z,47.90
2018-08-03T21:39:17.272Z,47.90
2018-08-03T21:41:45.464Z,47.70
2018-08-03T21:44:13.642Z,48.00
2018-08-03T21:46:41.797Z,47.80
2018-08-03T21:49:10.012Z,48.40
2018-08-03T21:51:38.279Z,47.90
2018-08-03T21:54:06.485Z,48.20
2018-08-03T21:56:34.693Z,48.00
2018-08-03T21:59:02.946Z,48.00
2018-08-03T22:01:31.320Z,48.00
2018-08-03T22:03:59.686Z,48.20
2018-08-03T22:06:27.934Z,48.20
2018-08-03T22:08:56.182Z,48.70
2018-08-03T22:11:24.502Z,48.80
2018-08-03T22:13:52.683Z,49.00
2018-08-03T22:16:20.978Z,48.90
2018-08-03T22:18:49.275Z,49.30
2018-08-03T22:21:17.380Z,49.30
2018-08-03T22:23:45.559Z,49.10
2018-08-03T22:26:13.765Z,49.70
2018-08-03T22:28:42.004Z,49.50
2018-08-03T22:31:10.194Z,49.60
2018-08-03T22:33:38.431Z,49.90
2018-08-03T22:36:06.744Z,49.80
2018-08-03T22:38:34.976Z,49.90
2018-08-03T22:41:04.071Z,49.70
2018-08-03T22:43:32.245Z,49.80
2018-08-03T22:46:00.396Z,49.80
2018-08-03T22:48:28.596Z,49.90
2018-08-03T22:50:56.772Z,50.00
2018-08-03T22:53:25.040Z,49.70
2018-08-03T22:55:53.227Z,50.30
2018-08-03T22:58:21.493Z,50.20
2018-08-03T23:00:49.692Z,50.50
2018-08-03T23:03:17.901Z,50.60
2018-08-03T23:05:46.167Z,50.20
2018-08-03T23:08:14.412Z,50.00
2018-08-03T23:10:42.524Z,50.30
2018-08-03T23:13:10.889Z,50.00
2018-08-03T23:15:39.172Z,49.80
2018-08-03T23:18:07.470Z,49.90
2018-08-03T23:20:35.769Z,49.80
2018-08-03T23:23:04.252Z,49.40
2018-08-03T23:25:32.537Z,49.90
2018-08-03T23:28:00.817Z,50.20
2018-08-03T23:30:29.222Z,50.20
2018-08-03T23:32:57.520Z,50.10
2018-08-03T23:35:25.761Z,50.10
2018-08-03T23:37:53.969Z,49.80
2018-08-03T23:40:22.507Z,50.00
2018-08-03T23:42:50.856Z,49.90
2018-08-03T23:45:19.225Z,50.10
2018-08-03T23:47:47.549Z,50.10
2018-08-03T23:50:17.518Z,50.50
2018-08-03T23:52:46.838Z,50.80
2018-08-03T23:55:16.058Z,50.90
2018-08-03T23:57:44.569Z,50.70
